Time;durP1;ratioP1;P1;durP2;ratioP2;P2;SDS_P1;SDS_P2;PMS_P1;PMS_P2;Temp;Humidity;BMP_temperature;BMP_pressure;BME280_temperature;BME280_humidity;BME280_pressure;Samples;Min_cycle;Max_cycle;Signal;HPM_P1;HPM_P2
2023/05/30 00:02:02;;;;;;;18.70;4.07;;;;;;;;;;5004111;28;20186;-86
2023/05/30 00:04:28;;;;;;;19.53;4.40;;;;;;;;;;5005746;28;20184;-87
2023/05/30 00:06:55;;;;;;;15.00;4.07;;;;;;;;;;4987617;28;20214;-81
2023/05/30 00:09:21;;;;;;;13.27;3.70;;;;;;;;;;4986002;28;20264;-81
2023/05/30 00:11:48;;;;;;;18.47;3.90;;;;;;;;;;4985868;28;20245;-81
2023/05/30 00:14:20;;;;;;;16.77;4.00;;;;;;;;;;5003173;28;20264;-81
2023/05/30 00:16:46;;;;;;;15.57;4.20;;;;;;;;;;5003867;28;20245;-81
2023/05/30 00:19:13;;;;;;;18.00;4.07;;;;;;;;;;4986835;28;20201;-81
2023/05/30 00:21:39;;;;;;;13.57;4.03;;;;;;;;;;5002536;28;20246;-78
2023/05/30 00:24:06;;;;;;;17.83;3.87;;;;;;;;;;5004141;28;20272;-78
2023/05/30 00:26:32;;;;;;;17.07;3.93;;;;;;;;;;4986923;28;20189;-78
2023/05/30 00:28:58;;;;;;;14.77;4.00;;;;;;;;;;5004380;28;20213;-78
2023/05/30 00:31:24;;;;;;;17.20;4.00;;;;;;;;;;4985405;28;20229;-78
2023/05/30 00:33:50;;;;;;;12.67;3.90;;;;;;;;;;5003485;28;20184;-78
2023/05/30 00:36:16;;;;;;;18.73;4.10;;;;;;;;;;4986743;28;20204;-78
2023/05/30 00:38:43;;;;;;;12.70;3.87;;;;;;;;;;4985669;28;20193;-82
2023/05/30 00:41:09;;;;;;;12.43;3.90;;;;;;;;;;4987375;28;20182;-82
2023/05/30 00:43:37;;;;;;;17.53;4.13;;;;;;;;;;4986357;28;20182;-82
2023/05/30 00:46:04;;;;;;;16.70;4.17;;;;;;;;;;4987503;28;20186;-82
2023/05/30 00:48:30;;;;;;;17.70;4.43;;;;;;;;;;4985725;28;20209;-81
2023/05/30 00:50:57;;;;;;;14.30;4.20;;;;;;;;;;4997821;28;20213;-81
2023/05/30 00:53:23;;;;;;;20.47;4.40;;;;;;;;;;5006962;28;20285;-81
2023/05/30 00:55:50;;;;;;;16.67;4.17;;;;;;;;;;5007501;28;20181;-86
2023/05/30 00:58:16;;;;;;;19.20;4.90;;;;;;;;;;4989777;28;20174;-86
2023/05/30 01:00:43;;;;;;;22.03;4.37;;;;;;;;;;4992547;28;20201;-85
2023/05/30 01:03:09;;;;;;;15.70;4.33;;;;;;;;;;5005516;28;20186;-86
2023/05/30 01:05:35;;;;;;;15.80;3.87;;;;;;;;;;4990121;28;20216;-85
2023/05/30 01:08:01;;;;;;;17.43;4.30;;;;;;;;;;5008015;28;20177;-86
2023/05/30 01:10:30;;;;;;;16.90;4.50;;;;;;;;;;5007016;28;20210;-86
2023/05/30 01:12:56;;;;;;;13.83;4.40;;;;;;;;;;5007127;28;20181;-82
2023/05/30 01:15:33;;;;;;;18.87;5.03;;;;;;;;;;5003102;28;20186;-81
2023/05/30 01:18:19;;;;;;;16.63;4.03;;;;;;;;;;5006438;28;20177;-81
2023/05/30 01:20:50;;;;;;;11.13;4.43;;;;;;;;;;5004901;28;20190;-81
2023/05/30 01:23:22;;;;;;;17.70;4.83;;;;;;;;;;5004599;28;20190;-81
2023/05/30 01:25:48;;;;;;;19.93;4.90;;;;;;;;;;5008377;28;20196;-83
2023/05/30 01:28:16;;;;;;;18.23;4.67;;;;;;;;;;5003904;28;20185;-82
2023/05/30 01:30:46;;;;;;;16.00;4.67;;;;;;;;;;5007496;28;20233;-81
2023/05/30 01:33:13;;;;;;;22.43;4.63;;;;;;;;;;5006358;28;20192;-81
2023/05/30 01:35:44;;;;;;;21.93;4.53;;;;;;;;;;4990768;28;20190;-81
2023/05/30 01:38:10;;;;;;;14.13;4.97;;;;;;;;;;5006131;28;20210;-81
2023/05/30 01:40:37;;;;;;;15.73;4.90;;;;;;;;;;4991668;28;20267;-81
2023/05/30 01:43:18;;;;;;;17.67;4.97;;;;;;;;;;5009131;28;20189;-81
2023/05/30 01:46:01;;;;;;;22.10;5.00;;;;;;;;;;5007933;28;20204;-81
2023/05/30 01:48:46;;;;;;;19.67;4.87;;;;;;;;;;5015771;28;20189;-81
2023/05/30 01:51:14;;;;;;;16.30;4.37;;;;;;;;;;5010417;28;20232;-81
2023/05/30 01:53:43;;;;;;;23.33;4.87;;;;;;;;;;5000273;28;20188;-81
2023/05/30 01:56:12;;;;;;;16.07;4.10;;;;;;;;;;5012231;28;20309;-81
2023/05/30 01:58:42;;;;;;;16.60;4.40;;;;;;;;;;5007882;28;20254;-81
2023/05/30 02:01:08;;;;;;;19.07;5.03;;;;;;;;;;4990131;28;20198;-81
2023/05/30 02:03:35;;;;;;;14.83;4.80;;;;;;;;;;5015275;28;20184;-87
2023/05/30 02:06:01;;;;;;;17.50;4.57;;;;;;;;;;5000753;28;20192;-87
2023/05/30 02:08:27;;;;;;;16.23;4.87;;;;;;;;;;4979995;28;20186;-86
2023/05/30 02:10:56;;;;;;;19.70;4.90;;;;;;;;;;4996701;28;20296;-87
2023/05/30 02:13:22;;;;;;;16.90;4.50;;;;;;;;;;4980199;28;20193;-88
2023/05/30 02:15:48;;;;;;;20.10;5.40;;;;;;;;;;4980690;28;20193;-86
2023/05/30 02:18:14;;;;;;;17.97;4.93;;;;;;;;;;4979911;28;20182;-81
2023/05/30 02:20:40;;;;;;;14.37;4.90;;;;;;;;;;4997096;28;20235;-81
2023/05/30 02:23:06;;;;;;;17.97;4.90;;;;;;;;;;4995588;28;20182;-80
2023/05/30 02:25:32;;;;;;;18.67;4.90;;;;;;;;;;5001162;28;20180;-81
2023/05/30 02:27:58;;;;;;;13.83;4.70;;;;;;;;;;5015252;28;20181;-81
2023/05/30 02:30:24;;;;;;;18.37;4.97;;;;;;;;;;4998694;28;20252;-81
2023/05/30 02:32:50;;;;;;;13.67;4.37;;;;;;;;;;5015406;28;20178;-80
2023/05/30 02:35:16;;;;;;;18.43;4.70;;;;;;;;;;4999121;28;20262;-77
2023/05/30 02:37:42;;;;;;;17.73;4.87;;;;;;;;;;4999269;28;20217;-78
2023/05/30 02:40:12;;;;;;;14.60;4.60;;;;;;;;;;4993523;28;20182;-78
2023/05/30 02:42:38;;;;;;;13.57;4.57;;;;;;;;;;4995161;28;20193;-77
2023/05/30 02:45:05;;;;;;;21.20;5.10;;;;;;;;;;4997423;28;20186;-77
2023/05/30 02:47:31;;;;;;;13.77;5.17;;;;;;;;;;5007578;28;20182;-77
2023/05/30 02:49:57;;;;;;;15.63;4.73;;;;;;;;;;4995199;28;20256;-77
2023/05/30 02:52:23;;;;;;;14.17;5.10;;;;;;;;;;4982703;28;20178;-81
2023/05/30 02:54:49;;;;;;;13.73;5.00;;;;;;;;;;4990862;28;20196;-81
2023/05/30 02:57:15;;;;;;;20.53;5.00;;;;;;;;;;4989408;28;20221;-81
2023/05/30 02:59:41;;;;;;;16.33;4.70;;;;;;;;;;5005249;28;20189;-81
2023/05/30 03:02:09;;;;;;;16.20;4.97;;;;;;;;;;4990409;28;20193;-81
2023/05/30 03:04:36;;;;;;;19.73;4.73;;;;;;;;;;4987326;28;20213;-81
2023/05/30 03:07:02;;;;;;;14.00;4.70;;;;;;;;;;4982251;28;20190;-81
2023/05/30 03:09:28;;;;;;;14.80;4.43;;;;;;;;;;4986288;28;20267;-77
2023/05/30 03:11:54;;;;;;;13.83;4.57;;;;;;;;;;5009770;28;20192;-77
2023/05/30 03:14:20;;;;;;;14.70;4.70;;;;;;;;;;4998055;28;20276;-77
2023/05/30 03:16:48;;;;;;;17.70;4.53;;;;;;;;;;5015266;28;20303;-77
2023/05/30 03:19:14;;;;;;;18.13;5.43;;;;;;;;;;4998333;28;20192;-77
2023/05/30 03:21:41;;;;;;;18.13;5.13;;;;;;;;;;5014067;28;20216;-77
2023/05/30 03:24:07;;;;;;;14.40;4.70;;;;;;;;;;5015071;28;20248;-77
2023/05/30 03:26:33;;;;;;;17.47;5.13;;;;;;;;;;5014057;28;20204;-86
2023/05/30 03:28:59;;;;;;;15.20;4.87;;;;;;;;;;4996284;28;20237;-87
2023/05/30 03:31:27;;;;;;;17.03;5.07;;;;;;;;;;4978481;28;20272;-86
2023/05/30 03:33:53;;;;;;;13.57;4.47;;;;;;;;;;4994754;28;20190;-87
2023/05/30 03:36:20;;;;;;;17.60;4.87;;;;;;;;;;4994686;28;20322;-86
2023/05/30 03:38:46;;;;;;;14.93;5.00;;;;;;;;;;4978435;28;20209;-86
2023/05/30 03:41:12;;;;;;;13.93;5.13;;;;;;;;;;4978305;28;20192;-87
2023/05/30 03:43:38;;;;;;;12.47;4.70;;;;;;;;;;4978321;28;20221;-77
2023/05/30 03:46:04;;;;;;;15.97;4.77;;;;;;;;;;4978015;28;20194;-78
2023/05/30 03:48:30;;;;;;;12.10;5.27;;;;;;;;;;4997117;28;20196;-78
2023/05/30 03:50:58;;;;;;;13.73;4.83;;;;;;;;;;5014809;28;20205;-78
2023/05/30 03:53:24;;;;;;;16.13;5.10;;;;;;;;;;5013771;28;20177;-78
2023/05/30 03:55:50;;;;;;;18.90;5.13;;;;;;;;;;4997486;28;20212;-78
2023/05/30 03:58:16;;;;;;;19.37;5.83;;;;;;;;;;4997475;28;20182;-82
2023/05/30 04:00:42;;;;;;;13.93;4.97;;;;;;;;;;4997257;28;20215;-82
2023/05/30 04:03:08;;;;;;;13.33;5.10;;;;;;;;;;4996710;28;20195;-82
2023/05/30 04:05:34;;;;;;;16.37;5.10;;;;;;;;;;4984504;28;20280;-82
2023/05/30 04:08:00;;;;;;;10.83;4.43;;;;;;;;;;5013469;28;20196;-81
2023/05/30 04:10:26;;;;;;;12.70;5.20;;;;;;;;;;4997282;28;20209;-82
2023/05/30 04:12:52;;;;;;;13.67;5.23;;;;;;;;;;4992279;28;20209;-82
2023/05/30 04:15:18;;;;;;;15.07;5.03;;;;;;;;;;4997260;28;20212;-82
2023/05/30 04:17:44;;;;;;;15.63;5.37;;;;;;;;;;4997055;28;20280;-82
2023/05/30 04:20:12;;;;;;;14.90;5.17;;;;;;;;;;4997736;28;20284;-82
2023/05/30 04:22:38;;;;;;;13.13;5.27;;;;;;;;;;5013235;28;20185;-82
2023/05/30 04:25:05;;;;;;;12.93;5.10;;;;;;;;;;4997146;28;20185;-82
2023/05/30 04:27:32;;;;;;;12.37;5.43;;;;;;;;;;4997323;28;20279;-81
2023/05/30 04:30:00;;;;;;;14.90;5.10;;;;;;;;;;4997425;28;20283;-81
2023/05/30 04:32:29;;;;;;;14.60;5.33;;;;;;;;;;5013439;28;20177;-82
2023/05/30 04:34:57;;;;;;;13.23;4.70;;;;;;;;;;5013582;28;20177;-81
2023/05/30 04:37:23;;;;;;;17.30;5.70;;;;;;;;;;4995241;28;20189;-81
2023/05/30 04:39:49;;;;;;;15.07;5.50;;;;;;;;;;5002949;28;20185;-82
2023/05/30 04:42:17;;;;;;;14.33;5.33;;;;;;;;;;4996930;28;20177;-82
2023/05/30 04:44:45;;;;;;;16.00;5.83;;;;;;;;;;4993692;28;20213;-82
2023/05/30 04:47:11;;;;;;;11.83;5.03;;;;;;;;;;4996830;28;20189;-82
2023/05/30 04:49:39;;;;;;;9.93;4.70;;;;;;;;;;5013113;28;20231;-78
2023/05/30 04:52:06;;;;;;;15.50;5.30;;;;;;;;;;5013399;28;20189;-77
2023/05/30 04:54:32;;;;;;;11.70;5.30;;;;;;;;;;4996654;28;20177;-77
2023/05/30 04:56:58;;;;;;;11.23;4.90;;;;;;;;;;5013063;28;20182;-77
2023/05/30 04:59:25;;;;;;;12.63;5.20;;;;;;;;;;5013238;28;20182;-77
2023/05/30 05:01:52;;;;;;;8.13;4.33;;;;;;;;;;5012846;28;20173;-77
2023/05/30 05:04:18;;;;;;;13.20;5.40;;;;;;;;;;5013692;28;20192;-77
2023/05/30 05:06:44;;;;;;;13.20;5.33;;;;;;;;;;4996523;28;20185;-81
2023/05/30 05:09:11;;;;;;;11.87;5.13;;;;;;;;;;4993781;28;20243;-81
2023/05/30 05:11:37;;;;;;;14.03;5.80;;;;;;;;;;4996979;28;20308;-81
2023/05/30 05:14:03;;;;;;;13.93;5.73;;;;;;;;;;5013277;28;20197;-81
2023/05/30 05:16:29;;;;;;;11.97;5.10;;;;;;;;;;5012876;28;20186;-81
2023/05/30 05:18:55;;;;;;;13.60;5.57;;;;;;;;;;5012632;28;20186;-81
2023/05/30 05:21:21;;;;;;;15.43;5.17;;;;;;;;;;4993346;28;20190;-77
2023/05/30 05:23:48;;;;;;;15.60;5.70;;;;;;;;;;4993257;28;20190;-76
2023/05/30 05:26:15;;;;;;;13.47;5.47;;;;;;;;;;4993422;28;20186;-77
2023/05/30 05:28:41;;;;;;;12.57;5.40;;;;;;;;;;4980210;28;20194;-77
2023/05/30 05:31:07;;;;;;;13.60;5.10;;;;;;;;;;4996515;28;20224;-77
2023/05/30 05:33:33;;;;;;;11.17;5.47;;;;;;;;;;5010945;28;20181;-77
2023/05/30 05:36:00;;;;;;;14.57;5.43;;;;;;;;;;5013313;28;20181;-77
2023/05/30 05:38:26;;;;;;;12.23;4.97;;;;;;;;;;5016157;28;20185;-81
2023/05/30 05:40:52;;;;;;;14.13;5.17;;;;;;;;;;5017229;28;20177;-81
2023/05/30 05:43:19;;;;;;;14.30;5.60;;;;;;;;;;4999913;28;20212;-81
2023/05/30 05:45:45;;;;;;;12.97;5.80;;;;;;;;;;5009822;28;20257;-81
2023/05/30 05:48:11;;;;;;;15.27;5.33;;;;;;;;;;5013180;28;20213;-82
2023/05/30 05:50:37;;;;;;;13.40;4.90;;;;;;;;;;5015482;28;20496;-81
2023/05/30 05:53:03;;;;;;;14.43;5.40;;;;;;;;;;4999707;28;20186;-81
2023/05/30 05:55:30;;;;;;;12.27;5.40;;;;;;;;;;5016190;28;20225;-86
2023/05/30 05:57:56;;;;;;;16.53;5.63;;;;;;;;;;5000151;28;20181;-86
2023/05/30 06:00:22;;;;;;;10.50;5.10;;;;;;;;;;5015937;28;20185;-86
2023/05/30 06:02:48;;;;;;;11.33;4.77;;;;;;;;;;4999679;28;20205;-86
2023/05/30 06:05:14;;;;;;;12.23;5.90;;;;;;;;;;4999595;28;20193;-86
2023/05/30 06:07:40;;;;;;;15.00;5.73;;;;;;;;;;5015824;28;20185;-86
2023/05/30 06:10:06;;;;;;;12.87;5.87;;;;;;;;;;5015814;28;20205;-86
2023/05/30 06:12:32;;;;;;;15.10;5.20;;;;;;;;;;5015474;28;20177;-86
2023/05/30 06:14:58;;;;;;;15.93;5.97;;;;;;;;;;4996385;28;20196;-88
2023/05/30 06:17:24;;;;;;;12.60;5.47;;;;;;;;;;5001326;28;20178;-87
2023/05/30 06:19:51;;;;;;;14.60;5.23;;;;;;;;;;4995960;28;20182;-87
2023/05/30 06:22:17;;;;;;;14.20;5.50;;;;;;;;;;5012533;28;20204;-87
2023/05/30 06:24:43;;;;;;;11.80;4.97;;;;;;;;;;4998642;28;20232;-86
2023/05/30 06:27:09;;;;;;;13.53;5.43;;;;;;;;;;4995654;28;20405;-86
2023/05/30 06:29:35;;;;;;;13.27;5.68;;;;;;;;;;4981898;28;20489;-82
2023/05/30 06:32:01;;;;;;;14.10;5.30;;;;;;;;;;4998772;28;20196;-82
2023/05/30 06:34:27;;;;;;;13.47;5.50;;;;;;;;;;4992719;28;20192;-82
2023/05/30 06:36:54;;;;;;;14.13;5.23;;;;;;;;;;4986776;28;20221;-82
2023/05/30 06:39:22;;;;;;;11.67;4.93;;;;;;;;;;5003864;28;20188;-82
2023/05/30 06:41:48;;;;;;;14.80;5.20;;;;;;;;;;5003048;28;20181;-82
2023/05/30 06:44:15;;;;;;;15.90;6.17;;;;;;;;;;5004341;28;20178;-82
2023/05/30 06:46:41;;;;;;;12.93;5.60;;;;;;;;;;5000028;28;20190;-79
2023/05/30 06:49:07;;;;;;;12.07;5.43;;;;;;;;;;5003398;28;20269;-79
2023/05/30 06:51:33;;;;;;;10.03;5.47;;;;;;;;;;5012715;28;20205;-79
2023/05/30 06:53:59;;;;;;;15.13;5.57;;;;;;;;;;4988383;28;20185;-79
2023/05/30 06:56:26;;;;;;;8.77;4.90;;;;;;;;;;4987562;28;20184;-79
2023/05/30 06:58:52;;;;;;;10.90;4.77;;;;;;;;;;4991844;28;20255;-79
2023/05/30 07:01:18;;;;;;;11.57;5.27;;;;;;;;;;4996921;28;20245;-79
2023/05/30 07:03:44;;;;;;;9.43;5.00;;;;;;;;;;5014751;28;20181;-87
2023/05/30 07:06:10;;;;;;;10.10;4.97;;;;;;;;;;5014868;28;20190;-90
2023/05/30 07:08:37;;;;;;;12.07;5.57;;;;;;;;;;4998212;28;20216;-87
2023/05/30 07:11:03;;;;;;;13.80;5.33;;;;;;;;;;4998073;28;20300;-87
2023/05/30 07:13:29;;;;;;;13.40;5.13;;;;;;;;;;4998261;28;20262;-86
2023/05/30 07:15:55;;;;;;;11.70;5.03;;;;;;;;;;4997547;28;20185;-86
2023/05/30 07:18:21;;;;;;;14.53;5.40;;;;;;;;;;4995152;28;20244;-79
2023/05/30 07:20:47;;;;;;;12.90;5.30;;;;;;;;;;4994825;28;20182;-79
2023/05/30 07:23:13;;;;;;;13.40;5.37;;;;;;;;;;5009153;28;20259;-79
2023/05/30 07:25:39;;;;;;;12.60;5.20;;;;;;;;;;4997828;28;20239;-79
2023/05/30 07:28:05;;;;;;;12.53;5.27;;;;;;;;;;4997853;28;20189;-79
2023/05/30 07:30:31;;;;;;;11.77;5.30;;;;;;;;;;5014279;28;20225;-79
2023/05/30 07:32:57;;;;;;;14.80;5.20;;;;;;;;;;4993720;28;20193;-80
2023/05/30 07:35:24;;;;;;;13.80;5.13;;;;;;;;;;4984190;28;20185;-80
2023/05/30 07:37:53;;;;;;;15.60;4.77;;;;;;;;;;4990679;28;20268;-80
2023/05/30 07:40:19;;;;;;;14.37;5.37;;;;;;;;;;5003966;28;20189;-79
2023/05/30 07:42:47;;;;;;;10.87;4.90;;;;;;;;;;5003624;28;20213;-79
2023/05/30 07:45:13;;;;;;;15.43;5.30;;;;;;;;;;5003946;28;20212;-79
2023/05/30 07:47:39;;;;;;;10.83;5.00;;;;;;;;;;5014438;28;20188;-80
2023/05/30 07:50:06;;;;;;;10.50;4.93;;;;;;;;;;5013490;28;20208;-80
2023/05/30 07:52:32;;;;;;;11.93;5.00;;;;;;;;;;4996130;28;20189;-89
2023/05/30 07:54:58;;;;;;;13.47;5.20;;;;;;;;;;4993247;28;20247;-87
2023/05/30 07:57:24;;;;;;;12.10;4.80;;;;;;;;;;4996214;28;20268;-87
2023/05/30 07:59:50;;;;;;;10.93;4.97;;;;;;;;;;4996551;28;20208;-88
2023/05/30 08:02:18;;;;;;;12.77;5.00;;;;;;;;;;4997667;28;20181;-90
2023/05/30 08:04:44;;;;;;;13.20;5.33;;;;;;;;;;4996880;28;20224;-89
2023/05/30 08:07:10;;;;;;;11.30;4.97;;;;;;;;;;4993235;28;20175;-88
2023/05/30 08:09:36;;;;;;;11.57;5.00;;;;;;;;;;5000833;28;20213;-88
2023/05/30 08:12:05;;;;;;;13.80;4.80;;;;;;;;;;4985285;28;20220;-89
2023/05/30 08:14:32;;;;;;;15.57;5.97;;;;;;;;;;4993855;28;20216;-87
2023/05/30 08:16:58;;;;;;;11.53;5.00;;;;;;;;;;4993832;28;20201;-88
2023/05/30 08:19:24;;;;;;;9.60;5.20;;;;;;;;;;4996105;28;20185;-88
2023/05/30 08:21:50;;;;;;;18.83;5.70;;;;;;;;;;4997544;28;20185;-87
2023/05/30 08:24:16;;;;;;;10.80;4.63;;;;;;;;;;4997279;28;20196;-89
2023/05/30 08:26:42;;;;;;;12.60;5.07;;;;;;;;;;4997063;28;20181;-80
2023/05/30 08:29:08;;;;;;;15.50;5.40;;;;;;;;;;5012482;28;20200;-79
2023/05/30 08:31:34;;;;;;;13.00;5.00;;;;;;;;;;5013379;28;20213;-79
2023/05/30 08:34:04;;;;;;;10.53;5.00;;;;;;;;;;4996232;28;20189;-80
2023/05/30 08:36:32;;;;;;;11.03;5.07;;;;;;;;;;4997956;28;20192;-81
2023/05/30 08:38:58;;;;;;;11.73;5.10;;;;;;;;;;5012932;28;20184;-81
2023/05/30 08:41:25;;;;;;;10.30;4.70;;;;;;;;;;4996733;28;20185;-84
2023/05/30 08:43:51;;;;;;;14.67;4.90;;;;;;;;;;4995812;28;20427;-84
2023/05/30 08:46:18;;;;;;;12.07;5.07;;;;;;;;;;4996261;28;20228;-84
2023/05/30 08:48:44;;;;;;;8.53;4.57;;;;;;;;;;5012821;28;20197;-84
2023/05/30 08:51:13;;;;;;;12.40;5.07;;;;;;;;;;5012933;28;20296;-84
2023/05/30 08:53:43;;;;;;;12.03;5.00;;;;;;;;;;5006993;28;20236;-83
2023/05/30 08:56:11;;;;;;;12.30;5.40;;;;;;;;;;5013204;28;20181;-83
2023/05/30 08:58:42;;;;;;;11.53;5.10;;;;;;;;;;5012611;28;20181;-79
2023/05/30 09:01:10;;;;;;;10.50;5.10;;;;;;;;;;5001803;28;20240;-79
2023/05/30 09:03:36;;;;;;;10.20;5.30;;;;;;;;;;5013058;28;20185;-79
2023/05/30 09:06:03;;;;;;;14.33;5.03;;;;;;;;;;5013562;28;20244;-80
2023/05/30 09:08:30;;;;;;;13.53;5.60;;;;;;;;;;4996991;28;20182;-79
2023/05/30 09:10:57;;;;;;;11.17;5.00;;;;;;;;;;5011481;28;20217;-79
2023/05/30 09:13:23;;;;;;;12.53;5.10;;;;;;;;;;4997236;28;20185;-79
2023/05/30 09:15:49;;;;;;;10.50;5.30;;;;;;;;;;4997058;28;20321;-82
2023/05/30 09:18:16;;;;;;;9.00;4.40;;;;;;;;;;5008315;28;20213;-82
2023/05/30 09:20:43;;;;;;;10.80;4.33;;;;;;;;;;5005396;28;20181;-82
2023/05/30 09:23:09;;;;;;;10.53;4.83;;;;;;;;;;5017368;28;20189;-81
2023/05/30 09:25:54;;;;;;;10.17;5.30;;;;;;;;;;4999889;28;20186;-82
2023/05/30 09:28:27;;;;;;;9.07;4.57;;;;;;;;;;4988418;28;20189;-82
2023/05/30 09:31:00;;;;;;;8.60;4.40;;;;;;;;;;4997625;28;20307;-82
2023/05/30 09:33:41;;;;;;;13.17;5.50;;;;;;;;;;5016789;28;20189;-79
2023/05/30 09:36:07;;;;;;;8.37;4.33;;;;;;;;;;5016558;28;20173;-80
2023/05/30 09:38:34;;;;;;;9.97;4.23;;;;;;;;;;5000230;28;20193;-79
2023/05/30 09:41:03;;;;;;;14.00;4.77;;;;;;;;;;5016156;28;20182;-80
2023/05/30 09:43:31;;;;;;;13.00;5.13;;;;;;;;;;4999606;28;20284;-79
2023/05/30 09:45:57;;;;;;;9.30;4.30;;;;;;;;;;5015970;28;20244;-79
2023/05/30 09:48:23;;;;;;;13.80;4.80;;;;;;;;;;4999671;28;20193;-83
2023/05/30 09:50:53;;;;;;;9.33;4.50;;;;;;;;;;4999541;28;20216;-84
2023/05/30 09:53:19;;;;;;;11.00;4.60;;;;;;;;;;5015818;28;20239;-84
2023/05/30 09:55:45;;;;;;;11.33;4.70;;;;;;;;;;4999478;28;20181;-84
2023/05/30 09:58:20;;;;;;;12.27;4.78;;;;;;;;;;5006195;28;20185;-84
2023/05/30 10:00:53;;;;;;;9.37;4.50;;;;;;;;;;5015441;28;20267;-84
2023/05/30 10:03:20;;;;;;;8.48;4.88;;;;;;;;;;5013537;28;20272;-84
2023/05/30 10:05:46;;;;;;;9.25;4.22;;;;;;;;;;4999053;28;20189;-94
2023/05/30 10:08:14;;;;;;;14.77;4.90;;;;;;;;;;5008009;28;20225;-91
2023/05/30 10:10:43;;;;;;;9.57;4.40;;;;;;;;;;5015836;28;20217;-92
2023/05/30 10:13:09;;;;;;;8.25;4.32;;;;;;;;;;5016763;28;20181;-92
2023/05/30 10:15:35;;;;;;;11.20;4.68;;;;;;;;;;4999611;28;20193;-92
2023/05/30 10:18:16;;;;;;;8.57;4.28;;;;;;;;;;5015826;28;20184;-92
2023/05/30 10:20:44;;;;;;;11.48;5.35;;;;;;;;;;5011886;28;20296;-91
2023/05/30 10:23:10;;;;;;;11.85;4.85;;;;;;;;;;4995298;28;20178;-91
2023/05/30 10:25:37;;;;;;;9.70;4.75;;;;;;;;;;5003572;28;20188;-90
2023/05/30 10:30:33;;;;;;;8.73;4.70;;;;;;;;;;5056474;28;20249;-80
2023/05/30 10:33:09;;;;;;;9.70;5.25;;;;;;;;;;5065840;28;20194;-79
2023/05/30 10:35:35;;;;;;;9.23;4.90;;;;;;;;;;5054251;28;20172;-80
2023/05/30 10:38:03;;;;;;;9.45;4.90;;;;;;;;;;5036042;28;20176;-80
2023/05/30 10:40:34;;;;;;;12.40;5.25;;;;;;;;;;5054456;28;20194;-79
2023/05/30 10:43:06;;;;;;;11.18;4.78;;;;;;;;;;5055304;28;20169;-79
2023/05/30 10:45:45;;;;;;;11.45;5.00;;;;;;;;;;5052966;28;20211;-80
2023/05/30 10:48:22;;;;;;;10.75;4.93;;;;;;;;;;5052776;28;20183;-79
2023/05/30 10:50:51;;;;;;;13.23;5.18;;;;;;;;;;5054145;28;20253;-79
2023/05/30 10:53:18;;;;;;;12.07;4.93;;;;;;;;;;5054254;28;20172;-79
2023/05/30 10:55:49;;;;;;;14.30;5.60;;;;;;;;;;5037640;28;20355;-84
2023/05/30 10:58:35;;;;;;;10.13;5.20;;;;;;;;;;5052535;28;20178;-82
2023/05/30 11:01:20;;;;;;;8.70;4.82;;;;;;;;;;5067302;28;20183;-83
2023/05/30 11:03:46;;;;;;;7.93;4.78;;;;;;;;;;5054190;28;20271;-83
2023/05/30 11:06:12;;;;;;;12.77;5.20;;;;;;;;;;5037645;28;20211;-84
2023/05/30 11:08:40;;;;;;;9.77;5.70;;;;;;;;;;5041768;28;20194;-84
2023/05/30 11:11:19;;;;;;;13.45;5.40;;;;;;;;;;5068568;28;20203;-83
2023/05/30 11:13:46;;;;;;;14.55;5.20;;;;;;;;;;5068395;28;20191;-81
2023/05/30 11:16:23;;;;;;;10.50;5.78;;;;;;;;;;5073715;28;20221;-82
2023/05/30 11:18:50;;;;;;;11.68;5.32;;;;;;;;;;5070518;28;20221;-82
2023/05/30 11:21:16;;;;;;;11.10;5.30;;;;;;;;;;5070645;28;20190;-82
2023/05/30 11:24:01;;;;;;;10.35;5.45;;;;;;;;;;5070455;28;20176;-83
2023/05/30 11:26:59;;;;;;;9.80;5.50;;;;;;;;;;5070542;28;20184;-83
2023/05/30 11:29:29;;;;;;;10.88;5.15;;;;;;;;;;5032337;28;20311;-92
2023/05/30 11:31:56;;;;;;;11.65;5.63;;;;;;;;;;5070399;28;20229;-91
2023/05/30 11:34:22;;;;;;;13.23;6.05;;;;;;;;;;5070079;28;20180;-93
2023/05/30 11:36:49;;;;;;;9.65;5.50;;;;;;;;;;5070531;28;20180;-92
2023/05/30 11:39:15;;;;;;;8.50;5.70;;;;;;;;;;5071287;28;20172;-91
2023/05/30 11:41:42;;;;;;;12.43;5.75;;;;;;;;;;5070433;28;20187;-90
2023/05/30 11:44:11;;;;;;;12.25;5.65;;;;;;;;;;5070071;28;20180;-91
2023/05/30 11:46:37;;;;;;;12.27;6.05;;;;;;;;;;5059449;28;20251;-90
2023/05/30 11:49:06;;;;;;;10.35;4.88;;;;;;;;;;5037102;28;20195;-92
2023/05/30 11:51:33;;;;;;;9.32;5.10;;;;;;;;;;5054910;28;20229;-90
2023/05/30 11:53:59;;;;;;;11.85;5.68;;;;;;;;;;5054261;28;20226;-89
2023/05/30 11:56:31;;;;;;;9.27;5.35;;;;;;;;;;5081493;28;20241;-90
2023/05/30 11:58:57;;;;;;;9.25;4.82;;;;;;;;;;5051681;28;20176;-90
2023/05/30 12:01:24;;;;;;;10.85;5.05;;;;;;;;;;5068698;28;20176;-82
2023/05/30 12:03:50;;;;;;;12.05;5.22;;;;;;;;;;5049640;28;20184;-82
2023/05/30 12:06:16;;;;;;;9.23;5.10;;;;;;;;;;5068175;28;20176;-82
2023/05/30 12:08:43;;;;;;;9.63;4.80;;;;;;;;;;5033499;28;20191;-82
2023/05/30 12:11:12;;;;;;;9.68;4.50;;;;;;;;;;5051274;28;20207;-82
2023/05/30 12:13:38;;;;;;;6.97;5.03;;;;;;;;;;5052038;28;20187;-82
2023/05/30 12:16:05;;;;;;;8.55;4.75;;;;;;;;;;5033204;28;20180;-82
2023/05/30 12:18:35;;;;;;;11.82;5.38;;;;;;;;;;5068074;28;20183;-90
2023/05/30 12:21:01;;;;;;;8.98;4.70;;;;;;;;;;5055404;28;20175;-91
2023/05/30 12:23:27;;;;;;;9.43;4.47;;;;;;;;;;5053133;28;20191;-89
2023/05/30 12:25:54;;;;;;;9.05;4.53;;;;;;;;;;5069240;28;20183;-89
2023/05/30 12:28:21;;;;;;;8.82;4.75;;;;;;;;;;5037671;28;20180;-90
2023/05/30 12:30:47;;;;;;;8.15;4.55;;;;;;;;;;5035488;28;20239;-89
2023/05/30 12:33:17;;;;;;;7.53;4.72;;;;;;;;;;5067874;28;20172;-90
2023/05/30 12:35:44;;;;;;;8.85;4.53;;;;;;;;;;5053166;28;20207;-84
2023/05/30 12:38:12;;;;;;;7.03;4.30;;;;;;;;;;5051130;28;20188;-83
2023/05/30 12:40:43;;;;;;;7.60;4.70;;;;;;;;;;5052592;28;20186;-84
2023/05/30 12:43:09;;;;;;;7.90;4.57;;;;;;;;;;5050494;28;20184;-83
2023/05/30 12:45:35;;;;;;;10.10;5.22;;;;;;;;;;5052553;28;20237;-85
2023/05/30 12:48:01;;;;;;;6.35;4.50;;;;;;;;;;5054226;28;20202;-84
2023/05/30 12:50:27;;;;;;;8.70;5.15;;;;;;;;;;5053806;28;20207;-84
2023/05/30 12:52:53;;;;;;;8.80;5.15;;;;;;;;;;5023984;28;20189;-80
2023/05/30 12:55:19;;;;;;;8.40;4.40;;;;;;;;;;5070929;28;20188;-80
2023/05/30 12:57:45;;;;;;;8.63;4.93;;;;;;;;;;5040113;28;20191;-81
2023/05/30 13:00:11;;;;;;;9.57;4.25;;;;;;;;;;5073461;28;20191;-81
2023/05/30 13:02:38;;;;;;;6.85;4.53;;;;;;;;;;5049387;28;20211;-80
2023/05/30 13:05:04;;;;;;;7.20;4.88;;;;;;;;;;5039975;28;20176;-80
2023/05/30 13:07:30;;;;;;;6.95;4.57;;;;;;;;;;5073764;28;20210;-80
2023/05/30 13:09:56;;;;;;;6.82;4.93;;;;;;;;;;5073339;28;20188;-80
2023/05/30 13:12:22;;;;;;;8.85;4.95;;;;;;;;;;5039576;28;20191;-80
2023/05/30 13:14:48;;;;;;;7.43;4.60;;;;;;;;;;5055972;28;20176;-80
2023/05/30 13:17:14;;;;;;;7.60;5.20;;;;;;;;;;5039490;28;20234;-80
2023/05/30 13:19:40;;;;;;;8.82;4.88;;;;;;;;;;5055736;28;20306;-80
2023/05/30 13:22:07;;;;;;;7.53;5.35;;;;;;;;;;5070976;28;20209;-83
2023/05/30 13:24:33;;;;;;;6.70;4.97;;;;;;;;;;5072478;28;20176;-84
2023/05/30 13:27:00;;;;;;;10.55;5.53;;;;;;;;;;5060811;28;20188;-90
2023/05/30 13:29:26;;;;;;;5.68;4.45;;;;;;;;;;5055675;28;20302;-91
2023/05/30 13:31:52;;;;;;;10.57;5.78;;;;;;;;;;5071000;28;20301;-90
2023/05/30 13:34:18;;;;;;;7.85;5.47;;;;;;;;;;5057466;28;20262;-89
2023/05/30 13:36:44;;;;;;;6.32;5.00;;;;;;;;;;5059493;28;20212;-90
2023/05/30 13:39:10;;;;;;;5.95;5.10;;;;;;;;;;5041304;28;20211;-91
2023/05/30 13:41:37;;;;;;;6.30;4.97;;;;;;;;;;5039346;28;20249;-91
2023/05/30 13:44:03;;;;;;;8.18;5.38;;;;;;;;;;5055165;28;20183;-89
2023/05/30 13:46:29;;;;;;;8.52;5.40;;;;;;;;;;5055618;28;20176;-89
2023/05/30 13:48:57;;;;;;;6.45;4.68;;;;;;;;;;5039463;28;20184;-92
2023/05/30 13:51:23;;;;;;;5.15;4.53;;;;;;;;;;5055035;28;20207;-88
2023/05/30 13:53:49;;;;;;;5.85;5.03;;;;;;;;;;5074649;28;20172;-90
2023/05/30 13:56:16;;;;;;;6.35;4.68;;;;;;;;;;5061315;28;20173;-90
2023/05/30 13:58:42;;;;;;;7.50;4.78;;;;;;;;;;5057359;28;20195;-82
2023/05/30 14:01:08;;;;;;;5.95;4.78;;;;;;;;;;5056135;28;20195;-82
2023/05/30 14:03:35;;;;;;;8.10;4.63;;;;;;;;;;5053493;28;20183;-82
2023/05/30 14:06:01;;;;;;;7.07;4.65;;;;;;;;;;5056031;28;20168;-82
2023/05/30 14:08:28;;;;;;;6.85;4.72;;;;;;;;;;5072112;28;20180;-82
2023/05/30 14:10:55;;;;;;;6.28;4.93;;;;;;;;;;5088320;28;20225;-82
2023/05/30 14:13:22;;;;;;;5.95;5.00;;;;;;;;;;5056779;28;20221;-82
2023/05/30 14:15:48;;;;;;;5.35;4.85;;;;;;;;;;5060151;28;20175;-86
2023/05/30 14:18:14;;;;;;;9.52;4.65;;;;;;;;;;5061489;28;20176;-84
2023/05/30 14:20:40;;;;;;;5.50;4.90;;;;;;;;;;5054412;28;20192;-85
2023/05/30 14:23:07;;;;;;;5.38;4.65;;;;;;;;;;5057211;28;20266;-85
2023/05/30 14:25:33;;;;;;;6.55;4.53;;;;;;;;;;5070352;28;20194;-85
2023/05/30 14:27:59;;;;;;;5.15;4.28;;;;;;;;;;5038303;28;20188;-85
2023/05/30 14:30:25;;;;;;;5.22;4.72;;;;;;;;;;5037595;28;20258;-85
2023/05/30 14:32:51;;;;;;;4.88;4.18;;;;;;;;;;5055572;28;20167;-90
2023/05/30 14:35:17;;;;;;;4.53;4.13;;;;;;;;;;5055793;28;20287;-90
2023/05/30 14:37:44;;;;;;;5.65;4.20;;;;;;;;;;5043509;28;20183;-90